Time;durP1;ratioP1;P1;durP2;ratioP2;P2;SDS_P1;SDS_P2;PMS_P1;PMS_P2;Temp;Humidity;BMP_temperature;BMP_pressure;BME280_temperature;BME280_humidity;BME280_pressure;Samples;Min_cycle;Max_cycle;Signal;HPM_P1;HPM_P2
2023/02/04 00:00:36;;;;;;;10.27;10.00;;;19.50;52.80;;;;;;5112074;28;20485;-58
2023/02/04 00:03:02;;;;;;;11.83;11.40;;;19.50;52.80;;;;;;5133672;28;20960;-57
2023/02/04 00:05:29;;;;;;;11.10;10.50;;;19.50;52.90;;;;;;5134625;28;20440;-58
2023/02/04 00:07:56;;;;;;;9.90;9.70;;;19.50;52.80;;;;;;5134720;28;20870;-58
2023/02/04 00:10:24;;;;;;;11.17;10.77;;;19.50;52.90;;;;;;5134325;28;20468;-58
2023/02/04 00:12:51;;;;;;;10.77;10.27;;;19.50;52.90;;;;;;5116299;28;20446;-59
2023/02/04 00:15:18;;;;;;;11.33;10.73;;;19.50;52.90;;;;;;5113969;28;20446;-58
2023/02/04 00:17:45;;;;;;;10.67;10.37;;;19.50;52.90;;;;;;5113928;28;20448;-59
2023/02/04 00:20:12;;;;;;;10.90;10.60;;;19.50;52.90;;;;;;5085353;27;1067097;-58
2023/02/04 00:22:39;;;;;;;11.10;10.80;;;19.50;53.00;;;;;;5135747;27;20221;-59
2023/02/04 00:25:06;;;;;;;10.80;10.43;;;19.50;52.90;;;;;;5135549;27;20531;-59
2023/02/04 00:27:35;;;;;;;10.67;10.20;;;19.50;53.00;;;;;;5135483;27;20447;-59
2023/02/04 00:30:01;;;;;;;11.37;10.97;;;19.50;53.00;;;;;;5126675;27;20468;-60
2023/02/04 00:32:28;;;;;;;11.40;10.90;;;19.50;53.00;;;;;;5114632;28;20437;-58
2023/02/04 00:34:55;;;;;;;11.40;11.00;;;19.50;53.00;;;;;;5114532;28;21017;-57
2023/02/04 00:37:22;;;;;;;11.50;11.10;;;19.50;53.00;;;;;;5114528;28;20532;-58
2023/02/04 00:39:49;;;;;;;10.83;10.53;;;19.50;53.00;;;;;;5119589;27;20567;-56
2023/02/04 00:42:16;;;;;;;10.80;10.40;;;19.50;53.10;;;;;;5135029;27;20440;-58
2023/02/04 00:44:44;;;;;;;11.87;11.37;;;19.50;53.10;;;;;;5135153;27;20451;-57
2023/02/04 00:47:11;;;;;;;11.20;10.57;;;19.50;53.10;;;;;;5134840;27;20445;-58
2023/02/04 00:49:38;;;;;;;10.90;10.60;;;19.50;53.10;;;;;;5130292;27;20502;-58
2023/02/04 00:52:05;;;;;;;12.07;11.10;;;19.40;53.10;;;;;;5114123;28;20528;-58
2023/02/04 00:54:32;;;;;;;11.53;11.00;;;19.40;53.10;;;;;;5114139;28;20459;-57
2023/02/04 00:56:58;;;;;;;11.50;11.10;;;19.40;53.10;;;;;;5114047;28;20540;-58
2023/02/04 00:59:25;;;;;;;11.23;10.63;;;19.40;53.10;;;;;;5125592;27;20476;-57
2023/02/04 01:01:54;;;;;;;10.20;9.90;;;19.40;53.10;;;;;;5134392;27;20447;-58
2023/02/04 01:04:21;;;;;;;11.00;10.63;;;19.40;53.10;;;;;;5134529;27;20436;-58
2023/02/04 01:06:47;;;;;;;11.33;11.03;;;19.40;53.20;;;;;;5134470;27;20445;-58
2023/02/04 01:09:14;;;;;;;10.73;10.43;;;19.40;53.20;;;;;;5119578;27;20528;-58
2023/02/04 01:11:41;;;;;;;10.80;10.50;;;19.40;53.20;;;;;;5112859;28;20536;-58
2023/02/04 01:14:08;;;;;;;10.13;9.83;;;19.40;53.20;;;;;;5113771;28;20869;-57
2023/02/04 01:16:35;;;;;;;10.90;10.53;;;19.50;53.30;;;;;;5113754;28;20528;-57
2023/02/04 01:19:03;;;;;;;10.13;9.83;;;19.40;53.30;;;;;;5125303;27;20588;-57
2023/02/04 01:21:30;;;;;;;11.40;10.60;;;19.50;53.40;;;;;;5134027;27;20921;-58
2023/02/04 01:23:56;;;;;;;11.47;11.10;;;19.40;53.80;;;;;;5134150;27;20445;-56
2023/02/04 01:26:23;;;;;;;11.80;11.40;;;19.50;53.40;;;;;;5130263;27;20524;-59
2023/02/04 01:28:50;;;;;;;11.80;11.40;;;19.40;53.40;;;;;;5113285;28;20824;-58
2023/02/04 01:31:17;;;;;;;10.50;10.10;;;19.40;53.40;;;;;;5113409;28;20548;-55
2023/02/04 01:33:44;;;;;;;10.57;10.27;;;19.40;53.30;;;;;;5113371;28;20442;-57
2023/02/04 01:36:12;;;;;;;11.17;10.77;;;19.40;53.40;;;;;;5114661;27;20938;-58
2023/02/04 01:38:39;;;;;;;10.50;10.20;;;19.40;53.40;;;;;;5133878;27;20447;-59
2023/02/04 01:41:06;;;;;;;11.33;11.03;;;19.40;53.50;;;;;;5133467;27;20480;-58
2023/02/04 01:43:34;;;;;;;10.43;10.10;;;19.50;53.60;;;;;;5133694;27;20944;-57
2023/02/04 01:46:01;;;;;;;11.33;10.93;;;19.40;53.50;;;;;;5133494;27;20441;-58
2023/02/04 01:48:28;;;;;;;10.70;10.30;;;19.40;53.60;;;;;;5092966;28;20438;-58
2023/02/04 01:51:02;;;;;;;10.00;9.70;;;19.40;53.60;;;;;;5092565;28;20455;-59
2023/02/04 01:53:31;;;;;;;10.37;9.87;;;19.40;53.60;;;;;;5097755;27;20452;-57
2023/02/04 01:55:58;;;;;;;10.23;9.73;;;19.40;53.70;;;;;;5133555;27;20443;-58
2023/02/04 01:58:25;;;;;;;10.30;10.00;;;19.50;53.70;;;;;;5133213;27;20441;-58
2023/02/04 02:00:52;;;;;;;12.73;12.03;;;19.40;53.70;;;;;;5132939;27;20486;-59
2023/02/04 02:03:19;;;;;;;10.90;10.30;;;19.50;53.80;;;;;;5132092;27;20876;-58
2023/02/04 02:05:49;;;;;;;10.73;10.33;;;19.40;53.70;;;;;;5112807;28;20532;-60
2023/02/04 02:08:17;;;;;;;10.80;10.50;;;19.50;54.40;;;;;;5112664;28;20449;-58
2023/02/04 02:10:47;;;;;;;10.60;10.03;;;19.40;53.70;;;;;;5112342;28;20464;-58
2023/02/04 02:13:17;;;;;;;11.20;10.90;;;19.40;53.70;;;;;;5112636;28;20449;-59
2023/02/04 02:15:44;;;;;;;10.80;10.50;;;19.40;53.80;;;;;;5092347;28;20529;-59
2023/02/04 02:18:12;;;;;;;11.50;11.00;;;19.40;53.80;;;;;;5092286;28;20940;-57
2023/02/04 02:20:39;;;;;;;11.00;10.50;;;19.40;53.90;;;;;;5091780;28;20486;-57
2023/02/04 02:23:15;;;;;;;10.40;10.00;;;19.40;53.90;;;;;;5091856;28;20449;-57
2023/02/04 02:25:44;;;;;;;11.43;11.03;;;19.40;53.90;;;;;;5115094;27;20445;-58
2023/02/04 02:28:13;;;;;;;10.03;9.73;;;19.40;53.90;;;;;;5112395;28;20447;-59
2023/02/04 02:30:41;;;;;;;10.73;10.43;;;19.40;53.90;;;;;;5111975;28;20468;-57
2023/02/04 02:33:08;;;;;;;9.80;9.60;;;19.50;53.90;;;;;;5112374;28;20529;-58
2023/02/04 02:35:35;;;;;;;10.90;10.50;;;19.50;54.00;;;;;;5131847;27;20979;-58
2023/02/04 02:38:02;;;;;;;10.17;9.97;;;19.40;53.90;;;;;;5131034;27;20441;-57
2023/02/04 02:40:29;;;;;;;11.07;10.70;;;19.50;54.00;;;;;;5132506;27;20489;-58
2023/02/04 02:42:57;;;;;;;10.70;10.30;;;19.40;54.00;;;;;;5132682;27;20817;-57
2023/02/04 02:45:27;;;;;;;10.00;9.70;;;19.40;54.00;;;;;;5114494;28;20448;-55
2023/02/04 02:47:55;;;;;;;10.80;10.30;;;19.40;53.90;;;;;;5112120;28;20448;-58
2023/02/04 02:50:25;;;;;;;9.40;9.20;;;19.40;53.90;;;;;;5111723;28;20458;-58
2023/02/04 02:52:52;;;;;;;10.20;9.90;;;19.40;53.90;;;;;;5112279;28;20441;-58
2023/02/04 02:55:22;;;;;;;10.17;9.87;;;19.40;53.90;;;;;;5128809;28;20533;-55
2023/02/04 02:57:50;;;;;;;10.00;9.80;;;19.40;53.90;;;;;;5132646;28;20507;-57
2023/02/04 03:00:22;;;;;;;10.23;9.83;;;19.40;53.90;;;;;;5132411;28;20480;-58
2023/02/04 03:02:56;;;;;;;10.63;10.23;;;19.40;53.80;;;;;;5122701;28;20453;-58
2023/02/04 03:05:24;;;;;;;10.67;10.27;;;19.40;54.50;;;;;;5112018;28;20441;-58
2023/02/04 03:07:51;;;;;;;10.37;9.97;;;19.50;53.90;;;;;;5111956;28;20809;-56
2023/02/04 03:10:18;;;;;;;10.50;10.20;;;19.50;54.00;;;;;;5111680;28;20464;-59
2023/02/04 03:12:47;;;;;;;11.23;10.80;;;19.50;54.00;;;;;;5120536;28;20821;-58
2023/02/04 03:15:14;;;;;;;11.53;11.20;;;19.40;54.50;;;;;;5132635;28;20440;-58
2023/02/04 03:17:44;;;;;;;11.33;11.03;;;19.50;54.00;;;;;;5132446;28;20527;-58
2023/02/04 03:20:12;;;;;;;10.90;10.10;;;19.40;53.90;;;;;;5131888;28;20580;-58
2023/02/04 03:22:39;;;;;;;10.83;10.47;;;19.40;53.90;;;;;;5124377;28;20467;-57
2023/02/04 03:25:06;;;;;;;10.30;10.00;;;19.40;54.00;;;;;;5111774;28;20441;-58
2023/02/04 03:27:33;;;;;;;11.10;10.77;;;19.40;54.00;;;;;;5111683;28;20866;-59
2023/02/04 03:30:00;;;;;;;10.37;9.93;;;19.40;54.00;;;;;;5111465;28;20541;-58
2023/02/04 03:32:27;;;;;;;11.57;10.70;;;19.40;54.00;;;;;;5117222;28;20441;-58
2023/02/04 03:34:55;;;;;;;10.73;10.43;;;19.40;54.00;;;;;;5133340;27;20532;-58
2023/02/04 03:37:22;;;;;;;10.07;9.87;;;19.40;54.00;;;;;;5136161;27;20543;-59
2023/02/04 03:39:49;;;;;;;10.37;10.07;;;19.40;53.90;;;;;;5135827;27;20555;-58
2023/02/04 03:42:16;;;;;;;10.50;10.20;;;19.40;54.00;;;;;;5118027;27;20877;-57
2023/02/04 03:44:43;;;;;;;10.40;10.10;;;19.40;53.90;;;;;;5115610;28;20449;-59
2023/02/04 03:47:10;;;;;;;10.07;9.77;;;19.40;53.90;;;;;;5115568;28;20531;-58
2023/02/04 03:49:37;;;;;;;10.40;10.10;;;19.40;53.80;;;;;;5115233;28;20484;-58
2023/02/04 03:52:05;;;;;;;10.00;9.70;;;19.50;53.90;;;;;;5131461;27;20539;-57
2023/02/04 03:54:32;;;;;;;10.00;9.70;;;19.40;53.90;;;;;;5135956;27;20447;-57
2023/02/04 03:56:59;;;;;;;9.93;9.60;;;19.40;53.90;;;;;;5136103;27;20436;-58
2023/02/04 03:59:26;;;;;;;10.10;9.80;;;19.40;53.90;;;;;;5135855;27;21005;-57
2023/02/04 04:01:53;;;;;;;10.80;10.40;;;19.40;53.90;;;;;;5130628;27;21023;-58
2023/02/04 04:04:19;;;;;;;11.07;10.77;;;19.40;53.90;;;;;;5117230;27;20536;-58
2023/02/04 04:06:46;;;;;;;10.30;10.00;;;19.40;53.90;;;;;;5115145;28;20875;-58
2023/02/04 04:09:15;;;;;;;10.47;10.17;;;19.40;53.90;;;;;;5114933;28;20542;-58
2023/02/04 04:11:41;;;;;;;11.40;10.70;;;19.50;53.90;;;;;;5127448;27;20933;-58
2023/02/04 04:14:08;;;;;;;10.30;10.00;;;19.50;54.00;;;;;;5135562;27;20536;-58
2023/02/04 04:16:35;;;;;;;10.47;10.17;;;19.50;54.10;;;;;;5135519;27;21017;-58
2023/02/04 04:19:02;;;;;;;10.33;10.03;;;19.60;54.10;;;;;;5135377;27;20449;-55
2023/02/04 04:21:29;;;;;;;10.73;10.33;;;19.60;54.10;;;;;;5124356;27;20487;-57
2023/02/04 04:23:55;;;;;;;11.40;11.10;;;19.60;54.10;;;;;;5114814;28;21010;-57
2023/02/04 04:26:24;;;;;;;10.23;9.83;;;19.60;54.10;;;;;;5114732;28;20532;-55
2023/02/04 04:28:50;;;;;;;10.23;9.83;;;19.60;54.10;;;;;;5114442;28;20445;-56
2023/02/04 04:31:17;;;;;;;10.63;10.23;;;19.60;54.10;;;;;;5118966;27;20536;-56
2023/02/04 04:33:44;;;;;;;10.47;10.27;;;19.60;54.00;;;;;;5114515;28;20442;-54
2023/02/04 04:36:11;;;;;;;10.47;10.07;;;19.70;54.10;;;;;;5114549;28;20532;-56
2023/02/04 04:38:38;;;;;;;11.00;10.67;;;19.70;54.10;;;;;;5114375;28;21034;-56
2023/02/04 04:41:05;;;;;;;10.23;9.93;;;19.70;54.30;;;;;;5120675;27;20563;-56
2023/02/04 04:43:33;;;;;;;11.00;10.60;;;19.70;54.40;;;;;;5135141;27;20440;-54
2023/02/04 04:45:59;;;;;;;10.80;10.40;;;19.70;54.30;;;;;;5134942;27;20528;-53
2023/02/04 04:48:26;;;;;;;10.57;10.27;;;19.70;54.30;;;;;;5134801;27;20531;-56
2023/02/04 04:50:53;;;;;;;11.20;10.90;;;19.70;54.40;;;;;;5129308;27;20468;-56
2023/02/04 04:53:20;;;;;;;10.37;9.90;;;19.70;54.30;;;;;;5134832;27;20527;-58
2023/02/04 04:55:47;;;;;;;10.53;10.20;;;19.70;54.30;;;;;;5134750;27;20875;-57
2023/02/04 04:58:13;;;;;;;10.50;10.30;;;19.70;54.40;;;;;;5134620;27;20444;-57
2023/02/04 05:00:42;;;;;;;11.07;10.67;;;19.70;54.40;;;;;;5116916;27;21047;-53
2023/02/04 05:03:08;;;;;;;10.53;10.23;;;19.70;54.50;;;;;;5113938;28;20532;-56
2023/02/04 05:05:38;;;;;;;10.27;9.97;;;19.70;54.50;;;;;;5113888;28;20532;-56
2023/02/04 05:08:06;;;;;;;10.33;10.03;;;19.70;54.50;;;;;;5123116;27;20506;-57
2023/02/04 05:10:33;;;;;;;10.60;10.30;;;19.70;54.60;;;;;;5134164;27;20464;-57
2023/02/04 05:12:59;;;;;;;10.50;10.10;;;19.70;54.60;;;;;;5134681;27;20535;-56
2023/02/04 05:15:26;;;;;;;10.87;10.47;;;19.70;54.60;;;;;;5134387;27;20801;-57
2023/02/04 05:17:54;;;;;;;10.60;10.30;;;19.70;54.50;;;;;;5127071;27;20540;-53
2023/02/04 05:20:21;;;;;;;10.20;9.90;;;19.80;54.60;;;;;;5113823;28;20555;-57
2023/02/04 05:22:48;;;;;;;10.70;10.40;;;19.80;54.70;;;;;;5113709;28;20534;-56
2023/02/04 05:25:15;;;;;;;9.30;9.10;;;19.80;54.60;;;;;;5113613;28;20536;-56
2023/02/04 05:27:42;;;;;;;9.77;9.47;;;19.80;54.60;;;;;;5118457;27;20494;-58
2023/02/04 05:30:11;;;;;;;10.00;9.60;;;19.80;54.60;;;;;;5133759;27;20973;-56
2023/02/04 05:32:38;;;;;;;9.47;9.27;;;19.80;54.50;;;;;;5133928;27;20993;-57
2023/02/04 05:35:07;;;;;;;9.40;9.10;;;19.80;54.50;;;;;;5134064;27;20440;-56
2023/02/04 05:37:34;;;;;;;10.17;9.60;;;19.80;54.50;;;;;;5133471;27;20436;-56
2023/02/04 05:40:01;;;;;;;9.13;8.90;;;19.80;54.50;;;;;;5133441;27;20460;-57
2023/02/04 05:42:28;;;;;;;9.93;9.63;;;19.80;54.50;;;;;;5133663;27;20477;-57
2023/02/04 05:44:55;;;;;;;9.70;9.40;;;19.80;54.40;;;;;;5133627;27;20528;-57
2023/02/04 05:47:21;;;;;;;10.23;9.70;;;19.80;54.40;;;;;;5131916;27;20528;-57
2023/02/04 05:49:48;;;;;;;9.90;9.60;;;19.80;54.50;;;;;;5133316;27;20560;-57
2023/02/04 05:52:16;;;;;;;9.63;9.33;;;19.80;54.40;;;;;;5133645;27;20436;-55
2023/02/04 05:54:43;;;;;;;9.90;9.40;;;19.90;54.50;;;;;;5125682;27;20533;-57
2023/02/04 05:57:10;;;;;;;9.60;9.40;;;19.90;54.40;;;;;;5112861;28;20536;-59
2023/02/04 05:59:37;;;;;;;9.73;9.33;;;19.90;54.40;;;;;;5112581;28;21017;-57
2023/02/04 06:02:03;;;;;;;9.90;9.53;;;19.80;54.30;;;;;;5112752;28;20489;-57
2023/02/04 06:04:30;;;;;;;9.13;8.83;;;19.90;54.40;;;;;;5118023;27;20527;-57
2023/02/04 06:06:57;;;;;;;9.30;9.00;;;19.80;54.40;;;;;;5133306;27;20445;-55
2023/02/04 06:09:25;;;;;;;9.47;9.17;;;19.80;54.40;;;;;;5133081;27;20445;-58
2023/02/04 06:11:52;;;;;;;9.93;9.53;;;19.80;54.30;;;;;;5133046;27;20520;-56
2023/02/04 06:14:19;;;;;;;10.17;9.83;;;19.80;54.40;;;;;;5129169;27;20529;-55
2023/02/04 06:16:46;;;;;;;10.20;9.80;;;19.80;54.30;;;;;;5112758;28;20698;-57
2023/02/04 06:19:13;;;;;;;9.17;8.97;;;19.80;54.30;;;;;;5112104;28;20720;-57
2023/02/04 06:21:40;;;;;;;9.37;9.10;;;19.80;54.30;;;;;;5112283;28;20555;-56
2023/02/04 06:24:07;;;;;;;10.13;9.83;;;19.80;54.40;;;;;;5113895;27;20445;-57
2023/02/04 06:26:35;;;;;;;8.63;8.33;;;19.90;54.40;;;;;;5132918;27;20447;-57
2023/02/04 06:29:02;;;;;;;10.07;9.77;;;19.80;54.40;;;;;;5132794;27;20444;-55
2023/02/04 06:31:28;;;;;;;9.30;9.00;;;19.80;54.40;;;;;;5132880;27;20894;-57
2023/02/04 06:33:55;;;;;;;9.40;9.10;;;19.90;54.40;;;;;;5132572;27;20565;-57
2023/02/04 06:36:22;;;;;;;11.10;10.80;;;19.80;54.40;;;;;;5132445;27;20541;-57
2023/02/04 06:38:49;;;;;;;10.73;10.43;;;19.90;54.40;;;;;;5132642;27;20531;-57
2023/02/04 06:41:15;;;;;;;9.37;9.17;;;19.90;54.50;;;;;;5132539;27;20507;-56
2023/02/04 06:43:44;;;;;;;9.90;9.60;;;19.90;54.40;;;;;;5132876;27;20536;-58
2023/02/04 06:46:10;;;;;;;10.47;10.17;;;19.90;54.40;;;;;;5114029;27;20544;-55
2023/02/04 06:48:37;;;;;;;9.80;9.30;;;19.90;54.40;;;;;;5112079;28;20445;-57
2023/02/04 06:51:04;;;;;;;9.70;9.40;;;19.90;54.50;;;;;;5111963;28;20882;-58
2023/02/04 06:53:31;;;;;;;10.17;9.87;;;19.90;54.50;;;;;;5112103;28;20448;-54
2023/02/04 06:55:58;;;;;;;9.80;9.60;;;20.00;54.30;;;;;;5113361;28;20455;-59
2023/02/04 06:58:25;;;;;;;10.60;10.30;;;20.10;55.70;;;;;;5112289;28;20541;-58
2023/02/04 07:00:53;;;;;;;11.67;11.17;;;20.20;54.70;;;;;;5111864;28;20461;-59
2023/02/04 07:03:20;;;;;;;11.67;11.10;;;20.30;54.60;;;;;;5119183;28;20809;-58
2023/02/04 07:05:47;;;;;;;11.27;10.77;;;20.30;54.60;;;;;;5132756;28;20447;-52
2023/02/04 07:08:14;;;;;;;11.60;11.10;;;20.50;54.30;;;;;;5132819;28;20440;-59
2023/02/04 07:10:41;;;;;;;10.67;10.37;;;20.60;54.30;;;;;;5134997;27;20543;-57
2023/02/04 07:13:07;;;;;;;11.20;10.90;;;20.60;54.00;;;;;;5117393;27;20441;-59
2023/02/04 07:15:34;;;;;;;10.10;9.80;;;20.60;54.30;;;;;;5116226;28;20529;-56
2023/02/04 07:18:03;;;;;;;11.27;10.80;;;20.70;54.00;;;;;;5116156;28;20541;-58
2023/02/04 07:20:30;;;;;;;11.47;11.17;;;20.70;53.80;;;;;;5115782;28;21012;-63
2023/02/04 07:22:57;;;;;;;11.17;10.77;;;20.70;53.60;;;;;;5132130;27;20555;-57
2023/02/04 07:25:24;;;;;;;10.83;10.53;;;20.80;53.50;;;;;;5116332;28;20444;-57
2023/02/04 07:27:52;;;;;;;11.67;11.27;;;20.80;53.50;;;;;;5115933;28;20531;-57
2023/02/04 07:30:19;;;;;;;12.30;12.00;;;20.80;53.30;;;;;;5115708;28;20464;-57
2023/02/04 07:32:47;;;;;;;12.27;11.67;;;20.90;53.00;;;;;;5127837;27;20493;-59
2023/02/04 07:35:16;;;;;;;12.67;12.10;;;21.00;53.10;;;;;;5116642;27;20445;-57
2023/02/04 07:37:43;;;;;;;11.90;11.40;;;21.00;52.70;;;;;;5115888;28;20445;-57
2023/02/04 07:40:11;;;;;;;12.20;11.60;;;21.00;52.70;;;;;;5115651;28;20461;-59
2023/02/04 07:42:38;;;;;;;11.03;10.63;;;21.10;52.60;;;;;;5129691;27;20883;-57
2023/02/04 07:45:06;;;;;;;11.43;10.27;;;21.10;52.70;;;;;;5136254;27;20539;-55
2023/02/04 07:47:32;;;;;;;11.37;10.97;;;21.20;52.30;;;;;;5136640;27;20440;-61
2023/02/04 07:49:59;;;;;;;10.70;10.33;;;21.20;52.20;;;;;;5135847;27;20551;-58
2023/02/04 07:52:27;;;;;;;11.63;10.83;;;21.10;52.00;;;;;;5124164;27;20447;-63
2023/02/04 07:54:54;;;;;;;11.70;11.20;;;21.20;52.30;;;;;;5115341;28;20544;-63
2023/02/04 07:57:21;;;;;;;11.90;11.30;;;21.20;52.50;;;;;;5115350;28;20536;-60
2023/02/04 07:59:48;;;;;;;11.27;10.77;;;21.20;52.50;;;;;;5116342;28;20461;-62
2023/02/04 08:02:15;;;;;;;11.00;10.70;;;21.20;52.30;;;;;;5125724;27;20472;-55
2023/02/04 08:04:42;;;;;;;11.70;11.40;;;21.20;52.20;;;;;;5138886;27;20504;-62
2023/02/04 08:07:08;;;;;;;10.27;9.90;;;21.30;52.20;;;;;;5138374;27;20480;-57
2023/02/04 08:09:37;;;;;;;11.30;10.80;;;21.30;52.20;;;;;;5137021;27;21064;-56
2023/02/04 08:12:04;;;;;;;12.53;11.40;;;21.30;52.40;;;;;;5118529;28;20552;-57
2023/02/04 08:14:30;;;;;;;11.63;11.10;;;21.20;51.80;;;;;;5118243;28;20446;-57
2023/02/04 08:16:57;;;;;;;10.50;10.20;;;21.10;51.90;;;;;;5118055;28;20441;-59
2023/02/04 08:19:24;;;;;;;11.70;11.20;;;21.10;51.90;;;;;;5117579;28;20966;-57
2023/02/04 08:21:51;;;;;;;11.27;10.83;;;21.20;51.90;;;;;;5117377;28;20564;-56
2023/02/04 08:24:18;;;;;;;12.33;11.50;;;21.20;51.70;;;;;;5117992;28;20533;-58
2023/02/04 08:26:46;;;;;;;13.20;12.00;;;21.30;51.90;;;;;;5118307;28;20529;-56
2023/02/04 08:29:13;;;;;;;16.43;12.47;;;21.40;52.10;;;;;;5117597;28;20528;-57
2023/02/04 08:31:40;;;;;;;15.20;13.40;;;21.40;52.80;;;;;;5134498;27;20465;-63
2023/02/04 08:34:07;;;;;;;18.50;14.90;;;21.40;54.50;;;;;;5136500;27;20528;-61
2023/02/04 08:36:34;;;;;;;16.93;15.73;;;21.40;58.10;;;;;;5135381;27;20440;-64
2023/02/04 08:39:01;;;;;;;14.73;12.93;;;21.40;57.70;;;;;;5134993;27;20591;-63
2023/02/04 08:41:28;;;;;;;15.23;14.00;;;21.40;57.00;;;;;;5118030;27;20462;-59
2023/02/04 08:43:56;;;;;;;16.27;14.90;;;21.50;57.20;;;;;;5114624;28;21028;-60
2023/02/04 08:46:22;;;;;;;14.60;13.27;;;21.50;57.20;;;;;;5114824;28;20531;-59
2023/02/04 08:48:49;;;;;;;14.90;13.70;;;21.50;57.90;;;;;;5114377;28;21018;-61
2023/02/04 08:51:16;;;;;;;16.27;14.77;;;21.50;58.10;;;;;;5123314;27;20475;-62
2023/02/04 08:53:43;;;;;;;13.87;12.77;;;21.40;59.30;;;;;;5132644;27;20445;-61
2023/02/04 08:56:14;;;;;;;15.80;14.40;;;21.30;59.70;;;;;;5135259;27;20436;-58
2023/02/04 08:58:41;;;;;;;15.20;13.90;;;21.30;59.90;;;;;;5134903;27;20441;-61
2023/02/04 09:01:10;;;;;;;14.53;13.20;;;21.30;59.70;;;;;;5120645;27;20472;-61
2023/02/04 09:03:36;;;;;;;14.47;13.37;;;21.30;59.70;;;;;;5114270;28;20492;-59
2023/02/04 09:06:04;;;;;;;12.87;12.00;;;21.30;59.60;;;;;;5118150;27;20443;-57
2023/02/04 09:08:30;;;;;;;13.17;12.10;;;21.30;59.40;;;;;;5134533;27;20476;-63
2023/02/04 09:10:57;;;;;;;13.37;12.30;;;21.30;59.50;;;;;;5134449;27;20568;-62
2023/02/04 09:13:24;;;;;;;13.60;12.60;;;21.40;58.90;;;;;;5134707;27;20815;-60
2023/02/04 09:15:51;;;;;;;13.93;12.87;;;21.30;55.60;;;;;;5134719;27;20523;-63
2023/02/04 09:18:21;;;;;;;13.83;12.80;;;21.30;57.00;;;;;;5115797;27;20452;-66
2023/02/04 09:20:48;;;;;;;13.33;12.17;;;21.40;57.40;;;;;;5113912;28;20576;-64
2023/02/04 09:23:15;;;;;;;13.80;12.80;;;21.40;57.70;;;;;;5113656;28;20487;-63
2023/02/04 09:25:44;;;;;;;14.73;13.53;;;21.30;58.00;;;;;;5114161;28;20442;-64
2023/02/04 09:28:12;;;;;;;15.90;12.73;;;21.30;58.10;;;;;;5131007;27;20630;-64
2023/02/04 09:30:40;;;;;;;13.57;12.40;;;21.30;58.00;;;;;;5134320;27;20472;-63
2023/02/04 09:33:08;;;;;;;13.00;12.17;;;21.30;58.00;;;;;;5133337;27;20858;-63
2023/02/04 09:35:36;;;;;;;14.03;13.07;;;21.30;57.90;;;;;;5134160;27;20929;-64
2023/02/04 09:38:03;;;;;;;13.53;12.30;;;21.30;57.90;;;;;;5128917;27;20441;-59
2023/02/04 09:40:33;;;;;;;12.73;12.00;;;21.20;57.70;;;;;;5134394;27;20469;-65
2023/02/04 09:43:01;;;;;;;14.53;13.23;;;21.30;57.70;;;;;;5134266;27;20480;-62
2023/02/04 09:45:30;;;;;;;13.97;12.93;;;21.30;57.50;;;;;;5133843;27;20921;-61
2023/02/04 09:47:58;;;;;;;13.17;12.43;;;21.30;56.90;;;;;;5119356;27;20446;-61
2023/02/04 09:50:27;;;;;;;14.33;13.30;;;21.30;56.40;;;;;;5113404;28;20472;-60
2023/02/04 09:52:58;;;;;;;14.60;13.50;;;21.30;55.10;;;;;;5113431;28;20444;-62
2023/02/04 09:55:29;;;;;;;13.83;12.40;;;21.30;55.50;;;;;;5113493;28;20442;-64
2023/02/04 09:57:56;;;;;;;15.90;14.73;;;21.50;56.80;;;;;;5113028;27;20481;-62
2023/02/04 10:00:25;;;;;;;14.73;13.67;;;21.60;56.90;;;;;;5112789;28;20461;-60
2023/02/04 10:02:52;;;;;;;13.93;13.20;;;21.60;56.90;;;;;;5113185;28;20491;-62
2023/02/04 10:05:24;;;;;;;14.90;13.70;;;21.60;58.50;;;;;;5112961;28;20442;-60
2023/02/04 10:07:51;;;;;;;14.10;13.30;;;21.60;59.50;;;;;;5126924;27;20444;-60
2023/02/04 10:10:21;;;;;;;15.57;14.27;;;21.60;60.00;;;;;;5133217;27;20873;-61
2023/02/04 10:12:50;;;;;;;15.00;13.63;;;21.50;60.20;;;;;;5133484;27;20443;-64
2023/02/04 10:15:19;;;;;;;16.10;15.00;;;21.60;60.70;;;;;;5130319;27;20468;-64
2023/02/04 10:17:47;;;;;;;14.63;13.63;;;21.50;59.50;;;;;;5113162;28;20445;-63
2023/02/04 10:20:15;;;;;;;14.47;13.37;;;21.60;64.30;;;;;;5112640;28;20469;-63
2023/02/04 10:22:42;;;;;;;15.20;12.77;;;21.50;62.00;;;;;;5112865;28;20481;-62
2023/02/04 10:25:13;;;;;;;13.70;12.90;;;21.50;62.20;;;;;;5117125;27;20451;-63
2023/02/04 10:27:49;;;;;;;16.40;14.93;;;21.50;62.90;;;;;;5133362;27;20452;-62
2023/02/04 10:30:20;;;;;;;15.20;14.13;;;21.50;62.40;;;;;;5132812;27;20453;-62
2023/02/04 10:32:47;;;;;;;13.43;12.70;;;21.50;62.30;;;;;;5133115;27;20789;-63
2023/02/04 10:35:16;;;;;;;13.97;13.20;;;21.50;62.20;;;;;;5127137;27;20437;-64
2023/02/04 10:37:43;;;;;;;15.30;14.27;;;21.50;62.00;;;;;;5112664;28;20958;-61
2023/02/04 10:40:27;;;;;;;14.20;13.20;;;21.60;61.40;;;;;;5112233;28;21044;-64
2023/02/04 10:42:55;;;;;;;16.00;14.67;;;21.60;61.60;;;;;;5112215;28;20477;-64
2023/02/04 10:45:24;;;;;;;14.17;13.47;;;21.50;61.90;;;;;;5111956;28;20521;-61
2023/02/04 10:47:52;;;;;;;15.40;14.60;;;21.50;61.20;;;;;;5117152;27;20445;-63
2023/02/04 10:50:21;;;;;;;14.47;13.83;;;21.60;60.90;;;;;;5130932;27;20469;-62
2023/02/04 10:52:50;;;;;;;15.77;14.80;;;21.60;60.20;;;;;;5133273;27;20487;-64
2023/02/04 10:55:18;;;;;;;15.77;14.77;;;21.50;60.50;;;;;;5132951;27;20531;-62
2023/02/04 10:57:48;;;;;;;17.27;16.20;;;21.50;60.80;;;;;;5133280;28;20538;-62
2023/02/04 11:00:20;;;;;;;14.07;13.30;;;21.70;60.20;;;;;;5121897;28;20453;-66
2023/02/04 11:02:54;;;;;;;13.97;13.27;;;21.70;59.50;;;;;;5119062;28;20478;-61
2023/02/04 11:05:22;;;;;;;14.90;14.00;;;21.60;59.70;;;;;;5112366;28;20441;-59
2023/02/04 11:07:49;;;;;;;15.10;14.30;;;21.70;59.80;;;;;;5112337;28;20446;-57
2023/02/04 11:10:20;;;;;;;14.27;13.60;;;21.70;59.40;;;;;;5112211;28;20553;-61
2023/02/04 11:13:00;;;;;;;15.10;14.20;;;21.70;59.20;;;;;;5116546;28;20437;-63
2023/02/04 11:16:07;;;;;;;14.90;13.90;;;21.60;59.40;;;;;;5112618;28;20444;-64
2023/02/04 11:18:45;;;;;;;13.67;13.17;;;21.60;59.70;;;;;;5097999;28;20449;-63
2023/02/04 11:21:15;;;;;;;14.80;14.00;;;21.50;59.50;;;;;;5112373;28;20503;-63
2023/02/04 11:23:42;;;;;;;14.57;13.87;;;21.50;59.60;;;;;;5113414;28;20481;-62
2023/02/04 11:26:15;;;;;;;13.33;12.60;;;21.60;59.40;;;;;;5112846;28;20532;-62
2023/02/04 11:28:55;;;;;;;14.07;13.30;;;21.60;59.00;;;;;;5113064;28;20505;-63
2023/02/04 11:31:41;;;;;;;15.27;14.37;;;21.70;59.10;;;;;;5113275;28;20472;-65
2023/02/04 11:34:13;;;;;;;15.23;14.50;;;21.80;58.70;;;;;;5113734;28;20450;-59
2023/02/04 11:36:55;;;;;;;14.70;14.00;;;21.80;58.90;;;;;;5114820;28;20456;-62
2023/02/04 11:39:22;;;;;;;15.27;14.47;;;21.80;58.40;;;;;;5114829;28;20449;-61
2023/02/04 11:41:49;;;;;;;16.00;15.20;;;21.80;58.20;;;;;;5115692;28;20456;-63
2023/02/04 11:44:17;;;;;;;16.27;15.47;;;21.70;58.40;;;;;;5116383;28;20491;-61
2023/02/04 11:46:50;;;;;;;16.03;15.13;;;21.70;58.90;;;;;;5116918;28;20441;-63
2023/02/04 11:49:19;;;;;;;15.30;14.70;;;21.60;58.90;;;;;;5132916;28;20448;-61
2023/02/04 11:51:46;;;;;;;15.67;14.93;;;21.60;58.90;;;;;;5137487;28;20448;-63
2023/02/04 11:54:18;;;;;;;16.10;15.40;;;21.60;58.90;;;;;;5135393;28;20531;-58
2023/02/04 11:56:45;;;;;;;15.90;15.00;;;21.60;58.80;;;;;;5125211;27;20456;-60
2023/02/04 11:59:13;;;;;;;15.70;15.00;;;21.60;58.50;;;;;;5115546;28;20437;-61
2023/02/04 12:01:41;;;;;;;16.13;15.20;;;21.70;58.20;;;;;;5116193;28;20443;-60
2023/02/04 12:04:23;;;;;;;16.73;15.83;;;21.60;56.00;;;;;;5115956;28;20473;-60
2023/02/04 12:06:58;;;;;;;16.07;15.23;;;21.60;57.10;;;;;;5125530;27;20470;-58
2023/02/04 12:09:28;;;;;;;14.93;14.23;;;21.60;58.00;;;;;;5135891;27;20444;-62
2023/02/04 12:11:57;;;;;;;16.37;15.27;;;21.60;58.10;;;;;;5136413;27;20922;-58
2023/02/04 12:14:29;;;;;;;15.80;15.10;;;21.70;57.70;;;;;;5136450;27;20760;-62
2023/02/04 12:16:56;;;;;;;16.20;14.50;;;21.70;57.40;;;;;;5135685;27;20437;-62
2023/02/04 12:19:24;;;;;;;13.97;13.07;;;21.80;57.30;;;;;;5133775;27;20963;-62
2023/02/04 12:21:52;;;;;;;15.60;14.53;;;21.80;57.30;;;;;;5135865;27;20515;-63
2023/02/04 12:24:19;;;;;;;15.10;14.37;;;21.80;57.40;;;;;;5135978;27;20469;-65
2023/02/04 12:26:46;;;;;;;14.80;14.13;;;21.70;57.60;;;;;;5130846;27;20449;-64
2023/02/04 12:29:13;;;;;;;16.10;15.10;;;21.60;58.00;;;;;;5115052;28;20450;-61
2023/02/04 12:31:39;;;;;;;15.93;14.93;;;21.70;58.00;;;;;;5115632;28;20536;-59
2023/02/04 12:34:06;;;;;;;14.53;13.90;;;21.60;58.10;;;;;;5115356;28;20537;-63